Time;durP1;ratioP1;P1;durP2;ratioP2;P2;SDS_P1;SDS_P2;PMS_P1;PMS_P2;Temp;Humidity;BMP_temperature;BMP_pressure;BME280_temperature;BME280_humidity;BME280_pressure;Samples;Min_cycle;Max_cycle;Signal;HPM_P1;HPM_P2
2021/04/17 00:01:44;;;;;;;9.88;5.72;;;4.80;90.70;;;;;;5137494;27;20088;-69
2021/04/17 00:04:11;;;;;;;16.52;6.35;;;4.80;90.80;;;;;;5137686;27;20035;-68
2021/04/17 00:06:38;;;;;;;11.20;6.18;;;4.70;90.90;;;;;;5136980;27;20035;-69
2021/04/17 00:09:12;;;;;;;11.68;6.32;;;4.60;91.30;;;;;;5137686;27;20039;-68
2021/04/17 00:11:40;;;;;;;12.85;7.07;;;4.70;91.50;;;;;;5137643;27;20035;-69
2021/04/17 00:14:09;;;;;;;13.77;6.10;;;4.60;91.70;;;;;;5137750;27;20045;-68
2021/04/17 00:16:35;;;;;;;16.95;7.00;;;4.50;91.90;;;;;;5136801;27;20031;-68
2021/04/17 00:19:01;;;;;;;11.77;7.25;;;4.50;92.10;;;;;;5137266;27;20473;-68
2021/04/17 00:21:26;;;;;;;15.48;7.80;;;4.50;92.10;;;;;;5137145;27;20039;-69
2021/04/17 00:23:54;;;;;;;16.13;7.90;;;4.50;92.20;;;;;;5137627;27;20046;-69
2021/04/17 00:26:19;;;;;;;14.57;6.80;;;4.50;92.20;;;;;;5136614;27;20070;-68
2021/04/17 00:28:45;;;;;;;14.40;6.35;;;4.50;92.20;;;;;;5137229;27;20039;-69
2021/04/17 00:31:11;;;;;;;10.80;5.50;;;4.50;92.20;;;;;;5137338;27;20110;-69
2021/04/17 00:33:36;;;;;;;9.57;4.78;;;4.50;92.40;;;;;;5137014;27;20035;-69
2021/04/17 00:36:02;;;;;;;10.25;6.25;;;4.50;92.60;;;;;;5136423;27;20084;-69
2021/04/17 00:38:28;;;;;;;10.23;5.45;;;4.40;92.80;;;;;;5137155;27;20035;-68
2021/04/17 00:40:55;;;;;;;8.15;5.07;;;4.50;92.80;;;;;;5136693;27;20100;-69
2021/04/17 00:43:21;;;;;;;11.45;6.05;;;4.40;92.90;;;;;;5137052;27;20549;-68
2021/04/17 00:45:47;;;;;;;10.05;5.50;;;4.40;93.00;;;;;;5136110;27;20067;-68
2021/04/17 00:48:14;;;;;;;15.15;5.20;;;4.40;92.90;;;;;;5136835;27;20043;-69
2021/04/17 00:50:41;;;;;;;11.73;5.28;;;4.40;92.80;;;;;;5136496;27;20043;-69
2021/04/17 00:53:07;;;;;;;13.65;5.80;;;4.40;93.00;;;;;;5136444;27;20035;-69
2021/04/17 00:55:34;;;;;;;11.23;5.57;;;4.40;92.90;;;;;;5136039;27;20031;-68
2021/04/17 00:58:05;;;;;;;10.57;5.28;;;4.40;92.90;;;;;;5135649;27;20058;-69
2021/04/17 01:00:35;;;;;;;8.60;4.85;;;4.40;92.90;;;;;;5136563;27;20043;-69
2021/04/17 01:03:25;;;;;;;8.95;5.40;;;4.50;92.90;;;;;;5136553;27;20038;-68
2021/04/17 01:05:55;;;;;;;12.35;5.10;;;4.40;93.10;;;;;;5135855;27;20087;-69
2021/04/17 01:08:52;;;;;;;11.25;5.93;;;4.40;92.90;;;;;;5136038;27;20047;-69
2021/04/17 01:11:24;;;;;;;12.23;6.05;;;4.40;93.20;;;;;;5136357;27;20035;-68
2021/04/17 01:13:51;;;;;;;14.65;6.05;;;4.30;93.30;;;;;;5135993;27;20057;-68
2021/04/17 01:16:18;;;;;;;10.05;5.03;;;4.40;93.20;;;;;;5136023;27;20036;-69
2021/04/17 01:18:45;;;;;;;11.82;5.20;;;4.40;93.20;;;;;;5136787;27;20047;-68
2021/04/17 01:21:12;;;;;;;9.95;4.88;;;4.30;93.30;;;;;;5136289;27;20066;-68
2021/04/17 01:23:42;;;;;;;11.48;5.18;;;4.30;93.40;;;;;;5135952;27;20031;-68
2021/04/17 01:26:18;;;;;;;10.85;4.50;;;4.30;93.30;;;;;;5134514;27;20108;-69
2021/04/17 01:28:49;;;;;;;9.77;4.57;;;4.30;93.50;;;;;;5136652;27;20438;-68
2021/04/17 01:31:18;;;;;;;11.75;4.18;;;4.30;93.60;;;;;;5135855;27;20035;-68
2021/04/17 01:33:50;;;;;;;7.28;4.78;;;4.20;93.70;;;;;;5135863;27;20107;-68
2021/04/17 01:36:18;;;;;;;8.95;4.28;;;4.30;93.70;;;;;;5135395;27;20035;-68
2021/04/17 01:38:56;;;;;;;9.13;4.82;;;4.30;93.70;;;;;;5135828;27;20070;-69
2021/04/17 01:41:39;;;;;;;9.45;4.90;;;4.30;93.70;;;;;;5136242;27;20046;-68
2021/04/17 01:44:25;;;;;;;6.95;3.92;;;4.30;93.70;;;;;;5135606;27;20475;-68
2021/04/17 01:47:06;;;;;;;9.85;4.35;;;4.30;93.70;;;;;;5135342;27;20039;-69
2021/04/17 01:49:37;;;;;;;12.55;4.60;;;4.40;93.50;;;;;;5136293;27;20042;-68
2021/04/17 01:52:04;;;;;;;8.35;4.18;;;4.30;93.60;;;;;;5135901;27;20039;-68
2021/04/17 01:54:36;;;;;;;7.00;4.10;;;4.40;93.60;;;;;;5135103;27;20038;-69
2021/04/17 01:57:04;;;;;;;9.23;4.10;;;4.50;93.50;;;;;;5135183;27;20039;-69
2021/04/17 01:59:34;;;;;;;17.38;4.47;;;4.40;93.70;;;;;;5135522;27;20052;-68
2021/04/17 02:02:01;;;;;;;11.93;4.78;;;4.40;93.90;;;;;;5134795;27;20395;-69
2021/04/17 02:04:26;;;;;;;12.15;4.47;;;4.30;94.00;;;;;;5134781;27;20039;-69
2021/04/17 02:06:52;;;;;;;8.48;4.55;;;4.40;94.00;;;;;;5135130;27;20514;-68
2021/04/17 02:09:18;;;;;;;10.85;4.30;;;4.40;94.00;;;;;;5135207;27;20048;-69
2021/04/17 02:11:43;;;;;;;9.73;3.85;;;4.40;94.00;;;;;;5135327;27;20090;-69
2021/04/17 02:14:09;;;;;;;13.30;5.65;;;4.40;94.10;;;;;;5133664;27;20471;-69
2021/04/17 02:16:43;;;;;;;10.70;3.78;;;4.30;94.10;;;;;;5134766;27;20498;-69
2021/04/17 02:19:16;;;;;;;12.02;4.15;;;4.40;94.10;;;;;;5135424;27;20067;-68
2021/04/17 02:21:47;;;;;;;14.15;4.00;;;4.30;94.00;;;;;;5135244;27;20106;-68
2021/04/17 02:24:13;;;;;;;14.05;4.30;;;4.30;94.20;;;;;;5134563;27;20570;-68
2021/04/17 02:26:40;;;;;;;11.95;3.50;;;4.30;94.20;;;;;;5134395;27;20043;-68
2021/04/17 02:29:07;;;;;;;7.10;3.67;;;4.30;94.10;;;;;;5134615;27;20487;-68
2021/04/17 02:31:34;;;;;;;15.25;3.30;;;4.30;94.40;;;;;;5133372;27;20035;-69
2021/04/17 02:34:00;;;;;;;10.95;3.80;;;4.30;94.20;;;;;;5133674;27;20039;-69
2021/04/17 02:36:26;;;;;;;10.60;3.80;;;4.30;94.30;;;;;;5134138;27;20038;-68
2021/04/17 02:38:52;;;;;;;8.50;3.72;;;4.30;94.40;;;;;;5134478;27;20035;-68
2021/04/17 02:41:18;;;;;;;9.90;3.33;;;4.20;94.40;;;;;;5134385;27;20532;-68
2021/04/17 02:43:45;;;;;;;10.43;3.72;;;4.20;94.30;;;;;;5134400;27;20035;-68
2021/04/17 02:46:11;;;;;;;9.02;4.30;;;4.20;94.30;;;;;;5134053;27;20043;-69
2021/04/17 02:48:38;;;;;;;11.50;3.90;;;4.20;94.30;;;;;;5134475;27;20114;-68
2021/04/17 02:51:04;;;;;;;10.35;3.30;;;4.20;94.30;;;;;;5134339;27;20035;-68
2021/04/17 02:53:30;;;;;;;9.25;4.53;;;4.20;94.30;;;;;;5134664;27;20027;-68
2021/04/17 02:55:56;;;;;;;9.35;3.88;;;4.10;94.30;;;;;;5133855;27;20160;-69
2021/04/17 02:58:22;;;;;;;8.52;3.92;;;4.10;94.30;;;;;;5134822;27;20482;-68
2021/04/17 03:00:48;;;;;;;6.93;3.13;;;4.10;94.30;;;;;;5134464;27;20180;-68
2021/04/17 03:03:14;;;;;;;11.63;4.03;;;4.10;94.30;;;;;;5134158;27;20492;-68
2021/04/17 03:05:40;;;;;;;7.13;3.10;;;4.10;94.30;;;;;;5133909;27;20050;-68
2021/04/17 03:08:06;;;;;;;8.40;3.80;;;4.10;94.40;;;;;;5134509;27;20092;-68
2021/04/17 03:10:32;;;;;;;10.07;3.90;;;4.10;94.20;;;;;;5134430;27;20111;-69
2021/04/17 03:12:58;;;;;;;13.75;3.78;;;4.10;94.10;;;;;;5132981;28;20433;-68
2021/04/17 03:15:24;;;;;;;10.23;3.92;;;4.10;94.30;;;;;;5136705;27;20035;-69
2021/04/17 03:17:50;;;;;;;20.98;4.80;;;4.10;94.40;;;;;;5138279;27;20493;-68
2021/04/17 03:20:16;;;;;;;9.32;3.40;;;4.10;94.20;;;;;;5137281;27;20043;-68
2021/04/17 03:22:41;;;;;;;10.38;4.03;;;4.10;94.30;;;;;;5138139;27;20118;-68
2021/04/17 03:25:10;;;;;;;7.97;2.80;;;4.10;94.20;;;;;;5138051;27;20027;-69
2021/04/17 03:27:39;;;;;;;9.75;3.58;;;4.10;94.10;;;;;;5138005;27;20039;-68
2021/04/17 03:30:11;;;;;;;10.25;3.60;;;4.10;94.10;;;;;;5138314;27;20055;-68
2021/04/17 03:32:37;;;;;;;7.38;3.15;;;4.20;94.10;;;;;;5138195;27;20043;-69
2021/04/17 03:35:05;;;;;;;8.75;3.15;;;4.10;94.40;;;;;;5137997;27;20509;-68
2021/04/17 03:37:31;;;;;;;14.52;3.75;;;4.20;94.10;;;;;;5138347;27;20080;-68
2021/04/17 03:39:57;;;;;;;10.63;3.38;;;4.10;94.00;;;;;;5137836;27;20043;-69
2021/04/17 03:42:22;;;;;;;12.02;3.72;;;4.20;94.10;;;;;;5137737;27;20067;-68
2021/04/17 03:44:48;;;;;;;9.38;3.78;;;4.10;94.30;;;;;;5137539;27;20076;-68
2021/04/17 03:47:13;;;;;;;6.45;3.08;;;4.10;94.30;;;;;;5137597;27;20042;-68
2021/04/17 03:49:39;;;;;;;13.10;3.88;;;4.10;94.20;;;;;;5137992;27;20531;-69
2021/04/17 03:52:05;;;;;;;11.23;3.28;;;4.10;94.30;;;;;;5138333;27;20061;-69
2021/04/17 03:54:31;;;;;;;12.50;4.03;;;4.10;94.50;;;;;;5137318;27;20035;-68
2021/04/17 03:56:57;;;;;;;8.30;3.80;;;4.10;94.50;;;;;;5137384;27;20122;-68
2021/04/17 03:59:22;;;;;;;12.65;3.80;;;4.10;94.40;;;;;;5137510;27;20118;-68
2021/04/17 04:01:48;;;;;;;12.50;4.07;;;4.10;94.40;;;;;;5138166;27;20039;-68
2021/04/17 04:04:14;;;;;;;8.32;3.47;;;4.10;94.30;;;;;;5137758;27;20043;-68
2021/04/17 04:06:40;;;;;;;8.38;3.55;;;4.10;94.40;;;;;;5136804;27;20486;-68
2021/04/17 04:09:07;;;;;;;17.60;4.25;;;4.10;94.30;;;;;;5136565;27;20065;-68
2021/04/17 04:11:32;;;;;;;9.90;3.83;;;4.00;94.50;;;;;;5136159;27;20031;-68
2021/04/17 04:13:58;;;;;;;14.13;4.10;;;4.00;94.70;;;;;;5135984;27;20031;-68
2021/04/17 04:16:24;;;;;;;10.38;4.10;;;4.00;94.70;;;;;;5136147;27;20035;-68
2021/04/17 04:18:49;;;;;;;13.07;3.67;;;4.00;94.80;;;;;;5135948;27;20035;-68
2021/04/17 04:21:15;;;;;;;11.50;3.90;;;4.00;94.80;;;;;;5134755;28;20056;-68
2021/04/17 04:23:41;;;;;;;9.75;3.65;;;4.00;94.70;;;;;;5135790;27;20031;-68
2021/04/17 04:26:07;;;;;;;16.42;4.95;;;4.10;94.60;;;;;;5133908;27;20471;-68
2021/04/17 04:28:33;;;;;;;11.18;3.90;;;4.10;94.60;;;;;;5136194;27;20497;-68
2021/04/17 04:30:59;;;;;;;8.30;3.67;;;4.10;94.40;;;;;;5136300;27;20035;-68
2021/04/17 04:33:24;;;;;;;17.83;4.65;;;4.20;94.40;;;;;;5136236;27;20471;-68
2021/04/17 04:35:50;;;;;;;12.60;4.47;;;4.20;94.50;;;;;;5135868;27;20474;-68
2021/04/17 04:38:16;;;;;;;15.10;4.88;;;4.20;94.50;;;;;;5136183;27;20035;-68
2021/04/17 04:40:42;;;;;;;15.60;7.03;;;4.20;94.60;;;;;;5135726;27;20048;-68
2021/04/17 04:43:09;;;;;;;13.77;4.47;;;4.20;94.70;;;;;;5135635;27;20042;-68
2021/04/17 04:45:36;;;;;;;13.88;5.55;;;4.20;94.80;;;;;;5135360;27;20046;-68
2021/04/17 04:48:03;;;;;;;14.93;5.38;;;4.20;94.70;;;;;;5135819;27;20051;-68
2021/04/17 04:50:28;;;;;;;17.40;5.45;;;4.20;95.00;;;;;;5135914;27;20031;-68
2021/04/17 04:52:54;;;;;;;19.15;5.82;;;4.20;95.30;;;;;;5136192;27;20042;-68
2021/04/17 04:55:20;;;;;;;17.83;5.00;;;4.30;95.60;;;;;;5135443;27;20585;-68
2021/04/17 04:57:45;;;;;;;20.55;5.00;;;4.30;95.30;;;;;;5135324;27;20086;-68
2021/04/17 05:00:12;;;;;;;20.58;6.07;;;4.30;95.30;;;;;;5135623;27;20039;-68
2021/04/17 05:02:37;;;;;;;13.82;4.85;;;4.30;95.20;;;;;;5135502;27;20056;-68
2021/04/17 05:05:04;;;;;;;21.10;6.15;;;4.40;95.40;;;;;;5135230;27;20043;-68
2021/04/17 05:07:30;;;;;;;12.98;5.28;;;4.40;95.40;;;;;;5116006;27;556818;-68
2021/04/17 05:09:55;;;;;;;17.20;6.10;;;4.50;95.40;;;;;;5136808;27;20443;-68
2021/04/17 05:12:21;;;;;;;24.13;5.78;;;4.60;95.40;;;;;;5136065;27;20031;-68
2021/04/17 05:14:47;;;;;;;23.38;5.35;;;4.70;95.30;;;;;;5136087;27;20058;-68
2021/04/17 05:17:12;;;;;;;21.33;5.82;;;4.80;95.20;;;;;;5136228;27;20039;-68
2021/04/17 05:19:40;;;;;;;13.65;5.05;;;5.00;95.10;;;;;;5135905;27;20055;-68
2021/04/17 05:22:06;;;;;;;18.30;5.75;;;5.20;94.90;;;;;;5136036;27;20122;-68
2021/04/17 05:24:31;;;;;;;20.27;5.18;;;5.30;94.70;;;;;;5135619;27;20152;-68
2021/04/17 05:26:58;;;;;;;19.02;5.18;;;5.50;94.60;;;;;;5136093;27;20046;-68
2021/04/17 05:29:24;;;;;;;18.02;4.53;;;5.60;94.50;;;;;;5135694;27;20043;-68
2021/04/17 05:31:49;;;;;;;18.45;4.70;;;5.80;94.20;;;;;;5135753;27;20043;-68
2021/04/17 05:34:15;;;;;;;18.50;5.45;;;6.00;93.90;;;;;;5135374;27;20125;-68
2021/04/17 05:36:41;;;;;;;14.65;4.72;;;6.00;93.80;;;;;;5134717;27;20042;-68
2021/04/17 05:39:07;;;;;;;20.58;4.63;;;6.10;93.70;;;;;;5135969;27;20039;-68
2021/04/17 05:41:33;;;;;;;14.13;4.53;;;6.30;93.60;;;;;;5135694;27;20039;-68
2021/04/17 05:43:58;;;;;;;21.65;4.50;;;6.20;93.50;;;;;;5135527;27;20039;-68
2021/04/17 05:46:24;;;;;;;19.30;5.22;;;6.50;93.50;;;;;;5135221;27;20039;-68
2021/04/17 05:48:50;;;;;;;21.98;5.20;;;6.40;93.30;;;;;;5136013;27;20163;-68
2021/04/17 05:51:16;;;;;;;23.65;5.85;;;6.50;93.30;;;;;;5135323;27;20424;-68
2021/04/17 05:53:42;;;;;;;19.45;4.75;;;6.40;93.30;;;;;;5135237;27;20111;-68
2021/04/17 05:56:08;;;;;;;24.17;4.88;;;6.60;93.30;;;;;;5134817;27;20039;-68
2021/04/17 05:58:34;;;;;;;18.38;6.22;;;6.70;93.10;;;;;;5135070;27;20063;-68
2021/04/17 06:01:00;;;;;;;22.20;5.47;;;6.80;93.00;;;;;;5135498;27;20517;-68
2021/04/17 06:03:27;;;;;;;20.05;4.85;;;7.00;92.80;;;;;;5135409;27;20066;-68
2021/04/17 06:05:54;;;;;;;27.95;5.70;;;7.10;92.60;;;;;;5135299;27;20042;-67
2021/04/17 06:08:20;;;;;;;21.90;5.93;;;7.40;92.30;;;;;;5134907;27;20041;-68
2021/04/17 06:10:49;;;;;;;15.52;5.35;;;7.30;92.10;;;;;;5135318;27;20046;-68
2021/04/17 06:13:15;;;;;;;23.65;5.82;;;7.60;91.90;;;;;;5135163;27;20470;-68
2021/04/17 06:15:40;;;;;;;19.00;5.88;;;7.60;91.80;;;;;;5134586;27;20043;-68
2021/04/17 06:18:06;;;;;;;24.02;6.75;;;7.80;91.70;;;;;;5134833;27;20039;-68
2021/04/17 06:20:32;;;;;;;21.90;6.13;;;8.10;91.30;;;;;;5135461;27;20039;-68
2021/04/17 06:22:58;;;;;;;20.48;5.43;;;8.10;91.00;;;;;;5135184;27;20046;-68
2021/04/17 06:25:23;;;;;;;16.25;4.35;;;8.20;91.10;;;;;;5134525;27;20035;-68
2021/04/17 06:27:49;;;;;;;20.23;6.00;;;8.30;90.70;;;;;;5134996;27;20056;-68
2021/04/17 06:30:17;;;;;;;13.93;4.95;;;8.30;90.60;;;;;;5134744;27;20116;-68
2021/04/17 06:32:43;;;;;;;18.75;6.13;;;8.60;90.30;;;;;;5135248;27;20117;-68
2021/04/17 06:35:10;;;;;;;17.45;4.78;;;8.80;90.00;;;;;;5134570;27;20095;-68
2021/04/17 06:37:36;;;;;;;21.55;4.63;;;8.70;90.20;;;;;;5134448;27;20043;-68
2021/04/17 06:40:02;;;;;;;19.33;5.47;;;8.80;89.80;;;;;;5134434;27;20497;-68
2021/04/17 06:42:31;;;;;;;17.48;5.15;;;8.90;90.00;;;;;;5134672;27;20042;-68
2021/04/17 06:45:00;;;;;;;15.48;4.43;;;9.20;89.40;;;;;;5134425;27;20035;-68
2021/04/17 06:47:27;;;;;;;17.42;5.03;;;9.10;88.50;;;;;;5134726;27;20043;-68
2021/04/17 06:49:53;;;;;;;18.55;4.20;;;9.30;88.20;;;;;;5134446;27;20487;-68
2021/04/17 06:52:21;;;;;;;17.63;5.55;;;9.10;88.70;;;;;;5134479;27;20049;-68
2021/04/17 06:54:49;;;;;;;19.63;6.07;;;9.20;88.70;;;;;;5134171;27;20074;-68
2021/04/17 06:57:14;;;;;;;24.20;6.63;;;8.80;89.20;;;;;;5134612;27;20031;-68
2021/04/17 06:59:43;;;;;;;23.48;4.97;;;9.00;89.30;;;;;;5134628;27;20070;-68
2021/04/17 07:02:16;;;;;;;21.95;4.93;;;9.30;89.10;;;;;;5134911;27;20035;-68
2021/04/17 07:04:43;;;;;;;22.00;5.20;;;9.30;89.00;;;;;;5133929;27;20845;-68
2021/04/17 07:07:12;;;;;;;27.88;5.57;;;9.50;88.80;;;;;;5133976;27;20032;-68
2021/04/17 07:09:38;;;;;;;20.10;5.07;;;9.40;88.50;;;;;;5134454;27;20038;-68
2021/04/17 07:12:05;;;;;;;13.25;4.28;;;9.70;88.20;;;;;;5134063;27;20039;-68
2021/04/17 07:15:04;;;;;;;17.52;5.32;;;9.60;88.10;;;;;;5133807;27;20513;-68
2021/04/17 07:17:33;;;;;;;16.42;5.18;;;9.80;87.60;;;;;;5111065;27;20148;-68
2021/04/17 07:20:01;;;;;;;13.95;5.28;;;9.90;87.00;;;;;;5133882;27;20088;-68
2021/04/17 07:22:28;;;;;;;18.23;6.45;;;10.30;86.40;;;;;;5133679;27;20467;-68
2021/04/17 07:25:12;;;;;;;16.08;4.55;;;10.50;85.20;;;;;;5132903;27;20084;-68
2021/04/17 07:27:47;;;;;;;9.93;4.30;;;10.50;84.70;;;;;;5134118;27;20059;-68
2021/04/17 07:30:15;;;;;;;17.48;4.45;;;10.70;83.60;;;;;;5133923;27;20118;-68
2021/04/17 07:32:42;;;;;;;17.48;4.30;;;10.80;82.90;;;;;;5134368;27;20047;-68
2021/04/17 07:35:20;;;;;;;17.98;4.22;;;10.70;82.30;;;;;;5133577;27;20039;-68
2021/04/17 07:38:12;;;;;;;15.88;4.45;;;10.70;82.20;;;;;;5133707;27;20495;-68
2021/04/17 07:40:39;;;;;;;15.98;4.00;;;11.00;82.00;;;;;;5134121;27;20047;-68
2021/04/17 07:43:05;;;;;;;16.35;3.88;;;11.10;81.20;;;;;;5133891;27;20487;-68
2021/04/17 07:45:32;;;;;;;8.85;3.88;;;11.20;80.60;;;;;;5133609;27;20119;-68
2021/04/17 07:48:22;;;;;;;13.70;4.05;;;11.50;80.20;;;;;;5133703;27;20114;-68
2021/04/17 07:50:48;;;;;;;16.00;3.95;;;11.50;77.50;;;;;;5134106;27;20043;-68
2021/04/17 07:53:34;;;;;;;11.65;3.30;;;11.10;78.70;;;;;;5133654;27;20509;-68
2021/04/17 07:56:21;;;;;;;13.05;3.38;;;11.40;77.90;;;;;;5133452;27;20087;-68
2021/04/17 07:58:49;;;;;;;16.42;4.68;;;11.60;77.30;;;;;;5133174;27;20736;-68
2021/04/17 08:01:19;;;;;;;11.50;3.63;;;11.40;76.80;;;;;;5136433;27;20064;-66
2021/04/17 08:03:46;;;;;;;7.10;3.17;;;11.20;76.80;;;;;;5137532;27;20066;-66
2021/04/17 08:06:13;;;;;;;11.27;3.38;;;11.20;75.30;;;;;;5136911;27;20032;-66
2021/04/17 08:08:40;;;;;;;11.10;3.50;;;11.20;74.10;;;;;;5136232;27;20043;-66
2021/04/17 08:11:07;;;;;;;11.18;3.30;;;11.30;74.10;;;;;;5137186;27;20432;-66
2021/04/17 08:13:38;;;;;;;8.02;2.92;;;11.40;73.20;;;;;;5137472;27;20043;-66
2021/04/17 08:16:04;;;;;;;8.57;2.70;;;11.20;72.20;;;;;;5136970;27;20079;-66
2021/04/17 08:18:30;;;;;;;12.00;3.95;;;11.10;72.50;;;;;;5137258;27;20035;-66
2021/04/17 08:20:58;;;;;;;14.05;3.33;;;11.40;72.50;;;;;;5137554;27;20486;-66
2021/04/17 08:23:24;;;;;;;8.15;2.90;;;11.40;70.90;;;;;;5137360;27;20057;-66
2021/04/17 08:25:52;;;;;;;13.02;4.13;;;11.40;70.00;;;;;;5136668;27;20130;-68
2021/04/17 08:28:20;;;;;;;13.60;3.15;;;11.80;70.20;;;;;;5136989;27;20050;-68
2021/04/17 08:30:46;;;;;;;11.63;3.50;;;11.80;67.80;;;;;;5136961;27;20490;-68
2021/04/17 08:33:21;;;;;;;7.68;2.95;;;11.70;67.70;;;;;;5137504;27;20090;-68
2021/04/17 08:35:47;;;;;;;7.88;2.80;;;11.80;67.90;;;;;;5136662;27;20042;-68
2021/04/17 08:38:14;;;;;;;11.82;4.07;;;11.80;68.40;;;;;;5137455;27;20043;-68
2021/04/17 08:40:41;;;;;;;13.63;3.13;;;11.90;67.80;;;;;;5136921;27;20039;-68
2021/04/17 08:43:10;;;;;;;6.90;3.17;;;11.80;67.50;;;;;;5136692;27;20114;-68
2021/04/17 08:45:36;;;;;;;8.45;3.95;;;12.10;67.50;;;;;;5136320;27;20031;-68
2021/04/17 08:48:03;;;;;;;11.82;4.00;;;12.10;67.50;;;;;;5136616;27;20043;-68
2021/04/17 08:50:37;;;;;;;9.55;3.58;;;11.90;66.60;;;;;;5137224;27;20043;-68
2021/04/17 08:53:10;;;;;;;12.10;3.60;;;11.90;67.10;;;;;;5136660;27;20042;-68
2021/04/17 08:55:36;;;;;;;10.57;3.47;;;11.70;68.50;;;;;;5136739;27;20039;-68
2021/04/17 08:58:20;;;;;;;6.38;3.20;;;11.90;68.20;;;;;;5136671;27;20084;-68
2021/04/17 09:00:51;;;;;;;13.10;4.45;;;12.10;67.90;;;;;;5136969;27;20043;-68
2021/04/17 09:03:39;;;;;;;8.35;2.95;;;12.00;67.00;;;;;;5136902;27;20045;-68
2021/04/17 09:06:10;;;;;;;11.68;2.97;;;11.70;65.70;;;;;;5135798;27;20039;-69
2021/04/17 09:08:39;;;;;;;12.98;3.53;;;12.10;66.80;;;;;;5136242;27;20464;-72
2021/04/17 09:11:33;;;;;;;10.43;3.00;;;11.80;67.00;;;;;;5136242;27;20080;-71
2021/04/17 09:13:59;;;;;;;10.05;2.85;;;12.00;66.70;;;;;;5135815;27;20110;-71
2021/04/17 09:16:39;;;;;;;10.65;3.00;;;12.20;65.30;;;;;;5135621;27;20117;-71
2021/04/17 09:19:05;;;;;;;8.48;2.72;;;11.90;65.30;;;;;;5136352;27;20091;-71
2021/04/17 09:21:32;;;;;;;8.10;2.95;;;12.20;66.00;;;;;;5132655;27;20092;-71
2021/04/17 09:23:59;;;;;;;6.32;3.00;;;12.20;66.30;;;;;;5115291;28;20063;-71
2021/04/17 09:26:31;;;;;;;9.77;3.20;;;12.10;64.70;;;;;;5115059;27;20043;-71
2021/04/17 09:28:59;;;;;;;6.65;3.30;;;11.90;61.70;;;;;;5115431;28;20040;-71
2021/04/17 09:31:25;;;;;;;6.40;3.22;;;12.00;62.00;;;;;;5115729;28;20533;-71
2021/04/17 09:33:59;;;;;;;8.50;3.17;;;12.10;62.90;;;;;;5115275;28;20067;-71
2021/04/17 09:36:24;;;;;;;10.10;3.05;;;12.20;62.40;;;;;;5115156;28;20042;-71
2021/04/17 09:38:50;;;;;;;10.85;2.80;;;12.10;60.80;;;;;;5115006;28;20118;-71
2021/04/17 09:41:16;;;;;;;8.18;2.50;;;12.10;59.20;;;;;;5115152;28;20081;-71
2021/04/17 09:43:41;;;;;;;4.03;1.80;;;12.00;58.20;;;;;;5115337;28;20074;-72
2021/04/17 09:46:17;;;;;;;5.57;1.63;;;11.90;56.00;;;;;;5114918;28;20031;-72
2021/04/17 09:48:45;;;;;;;6.15;1.98;;;12.00;57.70;;;;;;5114919;28;20043;-71
2021/04/17 09:51:25;;;;;;;9.50;3.03;;;11.90;54.30;;;;;;5114676;28;20070;-72
2021/04/17 09:53:52;;;;;;;8.25;3.28;;;12.00;57.70;;;;;;5114894;28;20035;-72
2021/04/17 09:56:42;;;;;;;5.80;2.05;;;12.00;59.30;;;;;;5114376;28;20039;-71
2021/04/17 09:59:12;;;;;;;5.80;1.98;;;11.80;58.50;;;;;;5114725;28;20031;-72
2021/04/17 10:01:49;;;;;;;7.97;2.30;;;11.40;59.80;;;;;;5114828;28;20043;-72
2021/04/17 10:04:15;;;;;;;9.68;2.95;;;11.30;59.10;;;;;;5114900;28;20036;-71
2021/04/17 10:06:41;;;;;;;5.65;2.35;;;11.30;60.00;;;;;;5113963;28;20045;-72
2021/04/17 10:09:07;;;;;;;6.53;2.15;;;11.40;59.80;;;;;;5114432;28;20039;-71
2021/04/17 10:11:37;;;;;;;6.07;1.95;;;11.40;60.80;;;;;;5114404;28;20086;-71
2021/04/17 10:14:03;;;;;;;7.82;2.55;;;11.20;58.10;;;;;;5114151;27;20036;-71
2021/04/17 10:16:33;;;;;;;7.35;2.38;;;11.20;60.30;;;;;;5114325;28;20039;-71
2021/04/17 10:19:04;;;;;;;6.63;2.23;;;11.20;60.40;;;;;;5113151;28;20519;-71
2021/04/17 10:21:37;;;;;;;5.65;2.33;;;11.30;59.00;;;;;;5113428;28;20285;-71
2021/04/17 10:24:21;;;;;;;6.22;2.30;;;11.50;58.10;;;;;;5113923;28;20448;-71
2021/04/17 10:26:50;;;;;;;;;;;11.50;58.60;;;;;;5114540;28;20065;-71
2021/04/17 10:29:16;;;;;;;8.45;2.10;;;11.50;57.70;;;;;;5114685;28;19915;-71
2021/04/17 10:31:42;;;;;;;6.07;2.00;;;11.40;57.70;;;;;;5114035;28;20042;-71
2021/04/17 10:34:08;;;;;;;6.53;2.28;;;11.70;56.50;;;;;;5112920;28;20407;-71
2021/04/17 10:36:34;;;;;;;6.18;1.83;;;11.80;56.10;;;;;;5113572;28;20047;-71
2021/04/17 10:39:07;;;;;;;4.35;1.73;;;11.80;56.60;;;;;;5114424;27;20491;-71
2021/04/17 10:41:35;;;;;;;6.53;2.58;;;11.80;58.60;;;;;;5112757;28;20088;-71
2021/04/17 10:44:08;;;;;;;6.07;2.13;;;11.80;58.60;;;;;;5114275;28;20036;-71
2021/04/17 10:46:42;;;;;;;;;;;11.70;57.00;;;;;;5112666;28;20376;-72
2021/04/17 10:49:08;;;;;;;6.85;1.98;;;11.60;58.50;;;;;;5113823;28;19955;-72
2021/04/17 10:51:37;;;;;;;6.00;2.10;;;11.80;58.30;;;;;;5113912;28;20446;-72
2021/04/17 10:54:03;;;;;;;7.38;2.00;;;11.80;58.40;;;;;;5113860;28;20039;-72
2021/04/17 10:56:30;;;;;;;8.15;3.63;;;11.60;57.10;;;;;;5113404;28;20070;-72
2021/04/17 10:58:59;;;;;;;6.25;2.67;;;11.60;56.70;;;;;;5112811;28;20036;-72
2021/04/17 11:01:27;;;;;;;8.95;2.42;;;11.50;57.70;;;;;;5114162;28;20074;-72
2021/04/17 11:03:57;;;;;;;4.68;1.88;;;11.70;58.00;;;;;;5113969;28;20036;-72
2021/04/17 11:06:34;;;;;;;11.30;2.47;;;11.80;56.80;;;;;;5113181;28;20052;-72
2021/04/17 11:09:19;;;;;;;6.50;2.03;;;11.70;55.00;;;;;;5113558;28;20043;-72
2021/04/17 11:11:51;;;;;;;6.75;2.60;;;11.60;55.40;;;;;;5113519;28;20084;-72
2021/04/17 11:14:22;;;;;;;7.40;2.70;;;11.60;57.60;;;;;;5113395;28;20472;-72
2021/04/17 11:16:50;;;;;;;6.72;2.80;;;11.70;56.70;;;;;;5113926;28;20032;-72
2021/04/17 11:19:25;;;;;;;9.13;2.25;;;11.70;55.40;;;;;;5113422;28;20493;-72
2021/04/17 11:22:11;;;;;;;5.80;2.08;;;11.90;53.80;;;;;;5113449;28;20032;-72
2021/04/17 11:24:43;;;;;;;7.57;2.30;;;11.60;53.80;;;;;;5113601;28;20027;-72
2021/04/17 11:27:09;;;;;;;6.18;2.58;;;11.50;54.30;;;;;;5113359;28;20035;-72
2021/04/17 11:29:35;;;;;;;6.75;2.45;;;11.40;56.00;;;;;;5113351;28;20051;-72
2021/04/17 11:32:02;;;;;;;5.97;2.10;;;11.50;55.70;;;;;;5113720;28;20080;-71
2021/04/17 11:34:28;;;;;;;5.07;2.97;;;11.30;56.30;;;;;;5113369;28;20044;-72
2021/04/17 11:36:54;;;;;;;6.35;2.30;;;11.30;57.10;;;;;;5116781;28;20080;-72
2021/04/17 11:39:19;;;;;;;5.43;2.10;;;11.40;55.60;;;;;;5117680;28;20044;-72
2021/04/17 11:41:46;;;;;;;6.95;2.15;;;11.40;55.40;;;;;;5117540;28;20070;-71
2021/04/17 11:44:12;;;;;;;7.65;2.58;;;11.30;52.10;;;;;;5117590;28;20036;-71
2021/04/17 11:46:38;;;;;;;6.05;2.75;;;11.40;51.20;;;;;;5117341;28;20077;-72
2021/04/17 11:49:04;;;;;;;6.20;2.20;;;11.50;53.20;;;;;;5117663;28;20119;-72
2021/04/17 11:51:30;;;;;;;6.43;2.67;;;11.70;52.80;;;;;;5118152;28;20066;-71
2021/04/17 11:53:56;;;;;;;7.20;2.40;;;11.90;52.30;;;;;;5117305;28;20036;-72
2021/04/17 11:56:22;;;;;;;6.00;2.28;;;11.90;53.50;;;;;;5116692;28;20032;-71
2021/04/17 11:58:48;;;;;;;7.25;2.15;;;11.80;53.50;;;;;;5117098;28;20071;-72
2021/04/17 12:01:13;;;;;;;5.25;2.50;;;11.70;54.80;;;;;;5117245;28;20118;-72
2021/04/17 12:03:39;;;;;;;5.85;2.13;;;11.70;55.40;;;;;;5116810;28;20050;-71
2021/04/17 12:06:07;;;;;;;6.70;2.38;;;11.90;54.00;;;;;;5116686;28;20051;-72
2021/04/17 12:08:33;;;;;;;7.85;2.35;;;11.70;54.00;;;;;;5117522;28;20046;-72
2021/04/17 12:10:59;;;;;;;7.00;1.80;;;11.80;54.20;;;;;;5116674;28;20032;-72
2021/04/17 12:13:24;;;;;;;5.75;1.75;;;11.70;52.10;;;;;;5116928;27;20063;-72
2021/04/17 12:15:51;;;;;;;3.38;2.10;;;11.80;52.40;;;;;;5116515;28;20169;-72
2021/04/17 12:18:17;;;;;;;7.25;2.33;;;11.80;51.80;;;;;;5116597;28;20091;-72
2021/04/17 12:20:44;;;;;;;6.30;2.28;;;11.90;52.50;;;;;;5117166;28;20050;-72
2021/04/17 12:23:11;;;;;;;4.10;1.98;;;11.90;52.20;;;;;;5116362;28;20032;-72
2021/04/17 12:25:37;;;;;;;8.73;2.25;;;11.80;51.90;;;;;;5116205;28;20040;-72
2021/04/17 12:28:03;;;;;;;6.25;2.00;;;11.90;52.10;;;;;;5115486;28;20464;-72
2021/04/17 12:30:29;;;;;;;3.25;1.77;;;11.70;50.50;;;;;;5116768;28;20035;-72
2021/04/17 12:32:54;;;;;;;4.82;2.00;;;11.60;50.00;;;;;;5116755;28;20092;-72
2021/04/17 12:35:21;;;;;;;3.78;2.20;;;11.60;51.60;;;;;;5116054;27;20043;-72
2021/04/17 12:37:51;;;;;;;4.20;1.80;;;11.70;51.20;;;;;;5116566;28;20081;-72
2021/04/17 12:40:17;;;;;;;3.30;1.80;;;11.60;49.90;;;;;;5116669;28;20467;-72
2021/04/17 12:42:45;;;;;;;5.00;1.90;;;11.50;51.10;;;;;;5116232;27;20044;-72
2021/04/17 12:45:12;;;;;;;5.68;2.03;;;11.70;50.90;;;;;;5116093;28;20130;-72
2021/04/17 12:47:39;;;;;;;4.70;2.40;;;11.70;51.10;;;;;;5116090;28;20044;-72
2021/04/17 12:50:05;;;;;;;4.50;1.83;;;11.70;50.80;;;;;;5116549;27;20426;-71
2021/04/17 12:52:31;;;;;;;4.15;1.60;;;11.60;49.90;;;;;;5116059;28;20042;-71
2021/04/17 12:54:57;;;;;;;5.03;2.38;;;11.60;49.60;;;;;;5115547;28;20114;-72